createdAt,value
2017-10-31T14:42:03.465Z,52.6
2017-10-31T14:47:26.467Z,52.9
2017-10-31T14:52:03.668Z,53.1
2017-10-31T14:57:03.875Z,53.4
2017-10-31T15:02:23.745Z,54.6
2017-10-31T15:07:03.339Z,54.6
2017-10-31T15:12:03.225Z,54.3
2017-10-31T15:17:24.831Z,54.2
2017-10-31T15:22:03.813Z,55.3
2017-10-31T15:27:03.941Z,55.6
2017-10-31T15:32:24.374Z,55.8
2017-10-31T15:37:03.203Z,56.4
2017-10-31T15:42:03.383Z,58.0
2017-10-31T15:47:24.864Z,59.0
2017-10-31T15:52:03.728Z,60.0
2017-10-31T15:57:02.977Z,60.0
2017-10-31T16:02:18.658Z,64.0
2017-10-31T16:07:03.711Z,64.1
2017-10-31T16:12:03.151Z,65.0
2017-10-31T16:17:24.924Z,65.9
2017-10-31T16:22:03.797Z,66.1
2017-10-31T16:27:03.949Z,66.4
2017-10-31T16:32:21.804Z,66.2
2017-10-31T16:37:03.420Z,66.2
2017-10-31T16:42:03.462Z,65.7
2017-10-31T16:47:10.673Z,65.4
2017-10-31T16:52:03.813Z,65.3
2017-10-31T16:57:03.042Z,65.0
2017-10-31T17:02:03.296Z,65.3
2017-10-31T17:07:03.397Z,65.1
2017-10-31T17:12:03.754Z,64.8
2017-10-31T17:17:03.838Z,64.5
2017-10-31T17:22:04.011Z,63.9
2017-10-31T17:27:03.079Z,63.9
2017-10-31T17:32:03.313Z,64.0
2017-10-31T17:37:03.449Z,63.4
2017-10-31T17:42:03.494Z,63.0
2017-10-31T17:47:03.627Z,62.9
2017-10-31T17:52:03.658Z,62.8
2017-10-31T17:57:03.704Z,62.5
2017-10-31T18:02:03.850Z,62.6
2017-10-31T18:07:03.207Z,62.6
2017-10-31T18:12:04.860Z,62.6
2017-10-31T18:17:06.227Z,62.7
2017-10-31T18:22:06.465Z,62.8
2017-10-31T18:27:03.977Z,62.9
2017-10-31T18:32:05.871Z,63.2
2017-10-31T18:37:03.484Z,63.2
2017-10-31T18:42:03.563Z,62.7
2017-10-31T18:47:03.655Z,62.5
2017-10-31T18:52:03.768Z,62.0
2017-10-31T18:57:03.895Z,62.3
2017-10-31T19:02:03.039Z,62.8
2017-10-31T19:07:03.525Z,62.6
2017-10-31T19:12:03.618Z,62.5
2017-10-31T19:17:03.795Z,62.2
2017-10-31T19:22:03.946Z,62.1
2017-10-31T19:27:03.113Z,62.0
2017-10-31T19:32:03.236Z,61.8
2017-10-31T19:37:03.360Z,61.8
2017-10-31T19:42:03.513Z,61.8
2017-10-31T19:47:03.611Z,61.9
2017-10-31T19:52:03.674Z,61.8
2017-10-31T19:57:03.822Z,61.8
2017-10-31T20:02:03.896Z,61.9
2017-10-31T20:07:03.287Z,61.9
2017-10-31T20:12:03.577Z,61.7
2017-10-31T20:17:03.936Z,61.2
2017-10-31T20:22:03.354Z,61.0
2017-10-31T20:27:03.604Z,61.0
2017-10-31T20:32:03.951Z,61.1
2017-10-31T20:37:03.319Z,61.0
2017-10-31T20:42:03.526Z,61.1
2017-10-31T20:47:03.885Z,61.4
2017-10-31T20:52:03.138Z,61.7
2017-10-31T20:57:03.405Z,61.7
2017-10-31T21:02:10.891Z,62.0
2017-10-31T21:07:03.234Z,61.9
2017-10-31T21:12:03.658Z,61.8
2017-10-31T21:17:03.969Z,61.8
2017-10-31T21:22:03.307Z,61.8
2017-10-31T21:27:03.631Z,61.7
2017-10-31T21:32:03.908Z,61.9
2017-10-31T21:37:03.235Z,62.0
2017-10-31T21:42:03.487Z,61.9
2017-10-31T21:47:03.802Z,61.7
2017-10-31T21:52:03.101Z,61.7
2017-10-31T21:57:03.360Z,61.4
2017-10-31T22:02:03.728Z,61.8
2017-10-31T22:07:03.263Z,61.9
2017-10-31T22:12:03.641Z,61.6
2017-10-31T22:17:04.038Z,61.5
2017-10-31T22:22:03.435Z,60.9
2017-10-31T22:27:03.686Z,60.8
2017-10-31T22:32:03.973Z,61.1
2017-10-31T22:37:03.335Z,61.0
2017-10-31T22:42:03.604Z,60.8
2017-10-31T22:47:03.912Z,61.0
2017-10-31T22:52:03.236Z,60.8
2017-10-31T22:57:03.514Z,60.8
2017-10-31T23:02:03.946Z,60.8
2017-10-31T23:07:03.260Z,61.0
2017-10-31T23:12:03.830Z,60.9
2017-10-31T23:22:04.047Z,61.1
2017-10-31T23:27:03.637Z,60.7
2017-10-31T23:32:03.590Z,60.7
2017-10-31T23:37:03.226Z,60.7
2017-10-31T23:42:03.395Z,61.1
2017-10-31T23:47:03.191Z,61.4
2017-10-31T23:52:03.772Z,61.4
2017-10-31T23:57:03.822Z,61.4
